Pan Freesia — V7SB5 — position and weather

sailwx.info

Track history (hours):
 
Tides and Currents Weather Stations Pressure Air Temp Water Temp Dewpoint Dewpoint Depression Visibility Wind Speed Wind Dir Waves Ship Positions

Pan Freesia

Last reported at 2015-Dec-22 20:04 UTC. Time now 2016-May-05 16:15 UTC.
Position N 49°22' W 127°10'.
Warning: this ship's position is months out of date.

Length 292 m; draft 17.6 m.

Type: Cargo ship. MMSI: 538003616.

Date/timePositionNaut miles runAvg speedWind from/ knotsBaromVisibWave heightAir tempDewpointWater temp
2015-Dec-22 20:04N 49°22' W 127°10'810.9
2015-Dec-22 19:20N 49°17' W 127°01'1010.9
2015-Dec-22 18:25N 49°10' W 126°50'1010.9
2015-Dec-22 17:32N 49°04' W 126°38'1110.6
2015-Dec-22 16:29N 48°57' W 126°24'910.1
2015-Dec-22 15:33N 48°52' W 126°13'1010.0
2015-Dec-22 14:33N 48°46' W 126°01'1010.0
2015-Dec-22 13:33N 48°42' W 125°47'9 8.5
2015-Dec-22 12:33N 48°38' W 125°35'1010.4
2015-Dec-22 11:33N 48°35' W 125°20'11 9.9
2015-Dec-22 10:28N 48°32' W 125°05'3010.1
2015-Dec-22 07:29N 48°24' W 124°21'8 8.5
2015-Dec-22 06:29N 48°21' W 124°09'1010.4
2015-Dec-22 05:32N 48°18' W 123°55'1111.4
2015-Dec-22 04:32N 48°16' W 123°38'10 9.9
2015-Dec-22 03:33N 48°21' W 123°26'7 7.5
2015-Dec-22 02:33N 48°24' W 123°15'1313.0
2015-Dec-22 01:34N 48°37' W 123°14'1111.5
2015-Dec-22 00:33N 48°46' W 123°04'1110.8
2015-Dec-21 23:33N 48°57' W 123°06'5 4.7
2015-Dec-21 22:32N 49°01' W 123°10'0 0.0
2015-Dec-21 21:32N 49°01' W 123°10'0 0.0
2015-Dec-21 20:32N 49°01' W 123°10'0 0.0
2015-Dec-21 19:32N 49°01' W 123°10'0 0.0
2015-Dec-21 18:32N 49°01' W 123°10'0 0.0
2015-Dec-21 17:32N 49°01' W 123°10'0 0.0
2015-Dec-21 16:32N 49°01' W 123°10'0 0.0
2015-Dec-21 15:32N 49°01' W 123°10'0 0.0
2015-Dec-21 14:32N 49°01' W 123°10'0 0.0
2015-Dec-21 13:32N 49°01' W 123°10'0 0.0
2015-Dec-21 12:30N 49°01' W 123°10'0 0.0
2015-Dec-21 11:33N 49°01' W 123°10'0 0.0
2015-Dec-21 10:33N 49°01' W 123°10'0 0.0
2015-Dec-21 09:33N 49°01' W 123°10'0 0.0
2015-Dec-21 08:33N 49°01' W 123°10'0 0.0
2015-Dec-21 07:33N 49°01' W 123°10'0 0.0
2015-Dec-21 06:30N 49°01' W 123°10'0 0.0
2015-Dec-21 05:33N 49°01' W 123°10'0 0.0
2015-Dec-21 04:33N 49°01' W 123°10'0 0.0
2015-Dec-21 03:33N 49°01' W 123°10'0 0.0
2015-Dec-21 02:33N 49°01' W 123°10'0 0.0
2015-Dec-21 01:33N 49°01' W 123°10'0 0.0
2015-Dec-21 00:33N 49°01' W 123°10'0 0.0
2015-Dec-20 23:33N 49°01' W 123°10'0 0.0
2015-Dec-20 22:33N 49°01' W 123°10'0 0.0
2015-Dec-20 21:33N 49°01' W 123°10'0 0.0
2015-Dec-20 20:33N 49°01' W 123°10'0 0.0
2015-Dec-20 19:33N 49°01' W 123°10'0 0.0
2015-Dec-20 18:30N 49°01' W 123°10'0 0.0
2015-Dec-20 17:31N 49°01' W 123°10'0 0.0
2015-Dec-20 16:31N 49°01' W 123°10'0 0.0
2015-Dec-20 15:31N 49°01' W 123°10'0 0.0
2015-Dec-20 14:31N 49°01' W 123°10'0 0.0
2015-Dec-20 13:31N 49°01' W 123°10'0 0.0
2015-Dec-20 12:31N 49°01' W 123°10'0 0.0
2015-Dec-20 11:32N 49°01' W 123°10'0 0.0
2015-Dec-20 10:32N 49°01' W 123°10'0 0.0
2015-Dec-20 09:32N 49°01' W 123°10'0 0.0
2015-Dec-20 08:32N 49°01' W 123°10'0 0.0
2015-Dec-20 07:32N 49°01' W 123°10'0 0.0
2015-Dec-20 06:32N 49°01' W 123°10'0 0.0
2015-Dec-20 05:32N 49°01' W 123°10'0 0.0
2015-Dec-20 04:32N 49°01' W 123°10'0 0.0
2015-Dec-20 03:32N 49°01' W 123°10'0 0.0
2015-Dec-20 02:32N 49°01' W 123°10'0 0.0
2015-Dec-20 01:29N 49°01' W 123°10'0 0.0
2015-Dec-20 00:29N 49°01' W 123°10'0 0.0
2015-Dec-19 23:32N 49°01' W 123°10'0 0.0
2015-Dec-19 22:32N 49°01' W 123°10'0 0.0
2015-Dec-19 21:32N 49°01' W 123°10'0 0.0
2015-Dec-19 20:32N 49°01' W 123°10'0 0.0
2015-Dec-19 19:32N 49°01' W 123°10'0 0.0
2015-Dec-19 18:32N 49°01' W 123°10'0 0.0
2015-Dec-19 17:32N 49°01' W 123°10'0 0.0
2015-Dec-19 16:26N 49°01' W 123°10'0 0.0
2015-Dec-19 15:32N 49°01' W 123°10'0 0.0
2015-Dec-19 14:29N 49°01' W 123°10'0 0.0
2015-Dec-19 13:32N 49°01' W 123°10'0 0.3
2015-Dec-19 12:33N 49°01' W 123°10'3 2.7
2015-Dec-19 11:33N 49°01' W 123°15'3 3.5
2015-Dec-19 10:33N 49°01' W 123°20'8 8.3
2015-Dec-19 09:34N 49°09' W 123°23'1110.7
2015-Dec-19 08:33N 49°18' W 123°14'0 0.2
2015-Dec-19 07:33N 49°18' W 123°13'0 0.1
2015-Dec-19 06:33N 49°18' W 123°13'0 0.1
2015-Dec-19 05:33N 49°18' W 123°13'0 0.0
2015-Dec-19 04:33N 49°18' W 123°13'0 0.0
2015-Dec-19 03:33N 49°18' W 123°13'0 0.0
2015-Dec-19 02:33N 49°18' W 123°13'0 0.0
2015-Dec-19 01:33N 49°18' W 123°13'0 0.2
2015-Dec-19 00:33N 49°18' W 123°13'0 0.3
2015-Dec-18 23:33N 49°18' W 123°14'0 0.0
2015-Dec-18 22:33N 49°18' W 123°14'0 0.0
2015-Dec-18 21:33N 49°18' W 123°14'0 0.0
2015-Dec-18 20:33N 49°18' W 123°14'0 0.0
2015-Dec-18 19:33N 49°18' W 123°14'0 0.0
2015-Dec-18 18:33N 49°18' W 123°14'0 0.0
2015-Dec-18 17:33N 49°18' W 123°14'0 0.0
2015-Dec-18 16:33N 49°18' W 123°14'0 0.0
2015-Dec-18 15:33N 49°18' W 123°14'0 0.0
2015-Dec-18 14:33N 49°18' W 123°14'0 0.2
2015-Dec-18 13:33N 49°18' W 123°13'0 0.1
2015-Dec-18 12:33N 49°18' W 123°14'0 0.1
2015-Dec-18 11:33N 49°18' W 123°13'0 0.2
2015-Dec-18 10:33N 49°18' W 123°13'0 0.0
2015-Dec-18 09:33N 49°18' W 123°13'0 0.0
2015-Dec-18 08:33N 49°18' W 123°13'0 0.0
2015-Dec-18 07:33N 49°18' W 123°13'0 0.0
2015-Dec-18 06:33N 49°18' W 123°13'0 0.0
2015-Dec-18 05:33N 49°18' W 123°13'0 0.0
2015-Dec-18 04:33N 49°18' W 123°13'0 0.0
2015-Dec-18 03:33N 49°18' W 123°13'0 0.0
2015-Dec-18 02:33N 49°18' W 123°13'0 0.0
2015-Dec-18 01:33N 49°18' W 123°13'0 0.1
2015-Dec-18 00:33N 49°18' W 123°13'0 0.0
2015-Dec-17 23:33N 49°18' W 123°13'0 0.2
2015-Dec-17 22:33N 49°18' W 123°13'0 0.1
2015-Dec-17 21:33N 49°18' W 123°13'0 0.0
2015-Dec-17 20:33N 49°18' W 123°13'0 0.0
2015-Dec-17 19:33N 49°18' W 123°13'0 0.1
2015-Dec-17 18:33N 49°18' W 123°13'0 0.0
2015-Dec-17 17:33N 49°18' W 123°13'0 0.0
2015-Dec-17 16:33N 49°18' W 123°13'0 0.0
2015-Dec-17 15:33N 49°18' W 123°13'0 0.0
2015-Dec-17 14:33N 49°18' W 123°13'0 0.0
2015-Dec-17 13:33N 49°18' W 123°13'0 0.0
2015-Dec-17 12:33N 49°18' W 123°13'0 0.0
2015-Dec-17 11:33N 49°18' W 123°13'0 0.1
2015-Dec-17 10:33N 49°18' W 123°13'0 0.1
2015-Dec-17 09:33N 49°18' W 123°13'0 0.1
2015-Dec-17 08:33N 49°18' W 123°13'0 0.1
2015-Dec-17 07:33N 49°18' W 123°13'0 0.1
2015-Dec-17 06:33N 49°18' W 123°14'0 0.1
2015-Dec-17 05:33N 49°18' W 123°14'0 0.0
2015-Dec-17 04:33N 49°18' W 123°14'0 0.0
2015-Dec-17 03:33N 49°18' W 123°14'0 0.0
2015-Dec-17 02:33N 49°18' W 123°14'0 0.0
2015-Dec-17 01:33N 49°18' W 123°14'0 0.0
2015-Dec-17 00:33N 49°18' W 123°14'0 0.1
2015-Dec-16 23:33N 49°18' W 123°13'0 0.1
2015-Dec-16 22:33N 49°18' W 123°13'0 0.0
2015-Dec-16 21:33N 49°18' W 123°13'0 0.0
2015-Dec-16 20:33N 49°18' W 123°13'0 0.0
2015-Dec-16 19:33N 49°18' W 123°13'0 0.0
2015-Dec-16 18:30N 49°18' W 123°13'0 0.0
2015-Dec-16 17:33N 49°18' W 123°13'0 0.1
2015-Dec-16 16:33N 49°18' W 123°13'0 0.0
2015-Dec-16 15:33N 49°18' W 123°13'0 0.0
2015-Dec-16 14:33N 49°18' W 123°13'0 0.0
2015-Dec-16 13:33N 49°18' W 123°13'0 0.0
2015-Dec-16 12:33N 49°18' W 123°13'0 0.0
2015-Dec-16 11:33N 49°18' W 123°13'0 0.0
2015-Dec-16 10:33N 49°18' W 123°13'0 0.0
2015-Dec-16 09:33N 49°18' W 123°13'0 0.0
2015-Dec-16 08:33N 49°18' W 123°13'0 0.0
2015-Dec-16 07:33N 49°18' W 123°13'0 0.2
2015-Dec-16 06:33N 49°18' W 123°14'0 0.2
2015-Dec-16 05:33N 49°18' W 123°14'0 0.0
2015-Dec-16 04:33N 49°18' W 123°14'0 0.1
2015-Dec-16 03:33N 49°18' W 123°14'0 0.0
2015-Dec-16 02:33N 49°18' W 123°14'0 0.0
2015-Dec-16 01:33N 49°18' W 123°14'0 0.0
2015-Dec-16 00:31N 49°18' W 123°14'0 0.1
2015-Dec-15 23:31N 49°18' W 123°14'0 0.0
2015-Dec-15 22:31N 49°18' W 123°14'0 0.0
2015-Dec-15 21:31N 49°18' W 123°14'0 0.0
2015-Dec-15 20:31N 49°18' W 123°14'0 0.0
2015-Dec-15 19:31N 49°18' W 123°14'0 0.0
2015-Dec-15 18:31N 49°18' W 123°14'0 0.1
2015-Dec-15 17:31N 49°18' W 123°14'1 0.9
2015-Dec-15 16:33N 49°18' W 123°13'6 5.9
2015-Dec-15 15:33N 49°18' W 123°04'0 0.3
2015-Dec-15 14:32N 49°18' W 123°03'0 0.0
2015-Dec-15 13:32N 49°18' W 123°03'0 0.0
2015-Dec-15 12:32N 49°18' W 123°03'0 0.0
2015-Dec-15 11:32N 49°18' W 123°03'0 0.0
2015-Dec-15 10:32N 49°18' W 123°03'0 0.0
2015-Dec-15 09:32N 49°18' W 123°03'0 0.0
2015-Dec-15 08:32N 49°18' W 123°03'0 0.0
2015-Dec-15 07:32N 49°18' W 123°03'0 0.0
2015-Dec-15 06:32N 49°18' W 123°03'0 0.0
2015-Dec-15 05:32N 49°18' W 123°03'0 0.0
2015-Dec-15 04:32N 49°18' W 123°03'0 0.0
2015-Dec-15 03:32N 49°18' W 123°03'0 0.0
2015-Dec-15 02:32N 49°18' W 123°03'0 0.0
2015-Dec-15 01:32N 49°18' W 123°03'0 0.0
2015-Dec-15 00:32N 49°18' W 123°03'0 0.0
2015-Dec-14 23:32N 49°18' W 123°03'0 0.0
2015-Dec-14 22:32N 49°18' W 123°03'0 0.0
2015-Dec-14 21:32N 49°18' W 123°03'0 0.0
2015-Dec-14 20:32N 49°18' W 123°03'0 0.0
2015-Dec-14 19:32N 49°18' W 123°03'0 0.0
2015-Dec-14 18:32N 49°18' W 123°03'0 0.0
2015-Dec-14 17:32N 49°18' W 123°03'0 0.0
2015-Dec-14 16:32N 49°18' W 123°03'0 0.0
2015-Dec-14 15:32N 49°18' W 123°03'0 0.0
2015-Dec-14 14:32N 49°18' W 123°03'0 0.0
2015-Dec-14 13:32N 49°18' W 123°03'0 0.0
2015-Dec-14 12:32N 49°18' W 123°03'0 0.0
2015-Dec-14 11:32N 49°18' W 123°03'0 0.0
2015-Dec-14 10:32N 49°18' W 123°03'0 0.0
2015-Dec-14 09:32N 49°18' W 123°03'0 0.0
2015-Dec-14 08:32N 49°18' W 123°03'0 0.0
2015-Dec-14 07:32N 49°18' W 123°03'0 0.0
2015-Dec-14 06:32N 49°18' W 123°03'0 0.0
2015-Dec-14 05:32N 49°18' W 123°03'0 0.0
2015-Dec-14 04:32N 49°18' W 123°03'0 0.0
2015-Dec-14 03:32N 49°18' W 123°03'0 0.0
2015-Dec-14 02:32N 49°18' W 123°03'0 0.0
2015-Dec-14 01:29N 49°18' W 123°03'0 0.0
2015-Dec-14 00:32N 49°18' W 123°03'0 0.0
2015-Dec-13 23:26N 49°18' W 123°03'0 0.0
2015-Dec-13 22:32N 49°18' W 123°03'0 0.0
2015-Dec-13 21:32N 49°18' W 123°03'0 0.0
2015-Dec-13 20:32N 49°18' W 123°03'0 0.0
2015-Dec-13 19:32N 49°18' W 123°03'0 0.0
2015-Dec-13 18:32N 49°18' W 123°03'0 0.0
2015-Dec-13 17:32N 49°18' W 123°03'0 0.0
2015-Dec-13 16:32N 49°18' W 123°03'0 0.0
2015-Dec-13 15:32N 49°18' W 123°03'0 0.0
2015-Dec-13 14:32N 49°18' W 123°03'0 0.0
2015-Dec-13 13:32N 49°18' W 123°03'0 0.0
2015-Dec-13 12:32N 49°18' W 123°03'0 0.0
2015-Dec-13 11:32N 49°18' W 123°03'0 0.0
2015-Dec-13 10:32N 49°18' W 123°03'0 0.0
2015-Dec-13 09:34N 49°18' W 123°03'6 5.6
2015-Dec-13 08:34N 49°19' W 123°12'9 9.1
2015-Dec-13 07:33N 49°11' W 123°19'1312.6
2015-Dec-13 06:33N 48°59' W 123°13'1312.6
2015-Dec-13 05:33N 48°50' W 122°60'1110.8
2015-Dec-13 04:31N 48°42' W 123°13'1010.8
2015-Dec-13 03:33N 48°32' W 123°12'1010.3
2015-Dec-13 02:34N 48°22' W 123°17'7 6.9
2015-Dec-13 01:34N 48°18' W 123°25'10 9.9
2015-Dec-13 00:32N 48°13' W 123°38'1312.8
2015-Dec-12 23:31N 48°14' W 123°58'3912.8
2015-Dec-12 20:29N 48°30' W 124°52'  
Track history (hours):
 
Tides and Currents Weather Stations Pressure Air Temp Water Temp Dewpoint Dewpoint Depression Visibility Wind Speed Wind Dir Waves Ship Positions

Pan Freesia

Last reported at 2015-Dec-22 20:04 UTC. Time now 2016-May-05 16:15 UTC.
Position N 49°22' W 127°10'.
Warning: this ship's position is months out of date.

Length 292 m; draft 17.6 m.

Type: Cargo ship. MMSI: 538003616.

Date/timePositionNaut miles runAvg speedWind from/ knotsBaromVisibWave heightAir tempDewpointWater temp
2015-Dec-22 20:04N 49°22' W 127°10'810.9
2015-Dec-22 19:20N 49°17' W 127°01'1010.9
2015-Dec-22 18:25N 49°10' W 126°50'1010.9
2015-Dec-22 17:32N 49°04' W 126°38'1110.6
2015-Dec-22 16:29N 48°57' W 126°24'910.1
2015-Dec-22 15:33N 48°52' W 126°13'1010.0
2015-Dec-22 14:33N 48°46' W 126°01'1010.0
2015-Dec-22 13:33N 48°42' W 125°47'9 8.5
2015-Dec-22 12:33N 48°38' W 125°35'1010.4
2015-Dec-22 11:33N 48°35' W 125°20'11 9.9
2015-Dec-22 10:28N 48°32' W 125°05'3010.1
2015-Dec-22 07:29N 48°24' W 124°21'8 8.5
2015-Dec-22 06:29N 48°21' W 124°09'1010.4
2015-Dec-22 05:32N 48°18' W 123°55'1111.4
2015-Dec-22 04:32N 48°16' W 123°38'10 9.9
2015-Dec-22 03:33N 48°21' W 123°26'7 7.5
2015-Dec-22 02:33N 48°24' W 123°15'1313.0
2015-Dec-22 01:34N 48°37' W 123°14'1111.5
2015-Dec-22 00:33N 48°46' W 123°04'1110.8
2015-Dec-21 23:33N 48°57' W 123°06'5 4.7
2015-Dec-21 22:32N 49°01' W 123°10'0 0.0
2015-Dec-21 21:32N 49°01' W 123°10'0 0.0
2015-Dec-21 20:32N 49°01' W 123°10'0 0.0
2015-Dec-21 19:32N 49°01' W 123°10'0 0.0
2015-Dec-21 18:32N 49°01' W 123°10'0 0.0
2015-Dec-21 17:32N 49°01' W 123°10'0 0.0
2015-Dec-21 16:32N 49°01' W 123°10'0 0.0
2015-Dec-21 15:32N 49°01' W 123°10'0 0.0
2015-Dec-21 14:32N 49°01' W 123°10'0 0.0
2015-Dec-21 13:32N 49°01' W 123°10'0 0.0
2015-Dec-21 12:30N 49°01' W 123°10'0 0.0
2015-Dec-21 11:33N 49°01' W 123°10'0 0.0
2015-Dec-21 10:33N 49°01' W 123°10'0 0.0
2015-Dec-21 09:33N 49°01' W 123°10'0 0.0
2015-Dec-21 08:33N 49°01' W 123°10'0 0.0
2015-Dec-21 07:33N 49°01' W 123°10'0 0.0
2015-Dec-21 06:30N 49°01' W 123°10'0 0.0
2015-Dec-21 05:33N 49°01' W 123°10'0 0.0
2015-Dec-21 04:33N 49°01' W 123°10'0 0.0
2015-Dec-21 03:33N 49°01' W 123°10'0 0.0
2015-Dec-21 02:33N 49°01' W 123°10'0 0.0
2015-Dec-21 01:33N 49°01' W 123°10'0 0.0
2015-Dec-21 00:33N 49°01' W 123°10'0 0.0
2015-Dec-20 23:33N 49°01' W 123°10'0 0.0
2015-Dec-20 22:33N 49°01' W 123°10'0 0.0
2015-Dec-20 21:33N 49°01' W 123°10'0 0.0
2015-Dec-20 20:33N 49°01' W 123°10'0 0.0
2015-Dec-20 19:33N 49°01' W 123°10'0 0.0
2015-Dec-20 18:30N 49°01' W 123°10'0 0.0
2015-Dec-20 17:31N 49°01' W 123°10'0 0.0
2015-Dec-20 16:31N 49°01' W 123°10'0 0.0
2015-Dec-20 15:31N 49°01' W 123°10'0 0.0
2015-Dec-20 14:31N 49°01' W 123°10'0 0.0
2015-Dec-20 13:31N 49°01' W 123°10'0 0.0
2015-Dec-20 12:31N 49°01' W 123°10'0 0.0
2015-Dec-20 11:32N 49°01' W 123°10'0 0.0
2015-Dec-20 10:32N 49°01' W 123°10'0 0.0
2015-Dec-20 09:32N 49°01' W 123°10'0 0.0
2015-Dec-20 08:32N 49°01' W 123°10'0 0.0
2015-Dec-20 07:32N 49°01' W 123°10'0 0.0
2015-Dec-20 06:32N 49°01' W 123°10'0 0.0
2015-Dec-20 05:32N 49°01' W 123°10'0 0.0
2015-Dec-20 04:32N 49°01' W 123°10'0 0.0
2015-Dec-20 03:32N 49°01' W 123°10'0 0.0
2015-Dec-20 02:32N 49°01' W 123°10'0 0.0
2015-Dec-20 01:29N 49°01' W 123°10'0 0.0
2015-Dec-20 00:29N 49°01' W 123°10'0 0.0
2015-Dec-19 23:32N 49°01' W 123°10'0 0.0
2015-Dec-19 22:32N 49°01' W 123°10'0 0.0
2015-Dec-19 21:32N 49°01' W 123°10'0 0.0
2015-Dec-19 20:32N 49°01' W 123°10'0 0.0
2015-Dec-19 19:32N 49°01' W 123°10'0 0.0
2015-Dec-19 18:32N 49°01' W 123°10'0 0.0
2015-Dec-19 17:32N 49°01' W 123°10'0 0.0
2015-Dec-19 16:26N 49°01' W 123°10'0 0.0
2015-Dec-19 15:32N 49°01' W 123°10'0 0.0
2015-Dec-19 14:29N 49°01' W 123°10'0 0.0
2015-Dec-19 13:32N 49°01' W 123°10'0 0.3
2015-Dec-19 12:33N 49°01' W 123°10'3 2.7
2015-Dec-19 11:33N 49°01' W 123°15'3 3.5
2015-Dec-19 10:33N 49°01' W 123°20'8 8.3
2015-Dec-19 09:34N 49°09' W 123°23'1110.7
2015-Dec-19 08:33N 49°18' W 123°14'0 0.2
2015-Dec-19 07:33N 49°18' W 123°13'0 0.1
2015-Dec-19 06:33N 49°18' W 123°13'0 0.1
2015-Dec-19 05:33N 49°18' W 123°13'0 0.0
2015-Dec-19 04:33N 49°18' W 123°13'0 0.0
2015-Dec-19 03:33N 49°18' W 123°13'0 0.0
2015-Dec-19 02:33N 49°18' W 123°13'0 0.0
2015-Dec-19 01:33N 49°18' W 123°13'0 0.2
2015-Dec-19 00:33N 49°18' W 123°13'0 0.3
2015-Dec-18 23:33N 49°18' W 123°14'0 0.0
2015-Dec-18 22:33N 49°18' W 123°14'0 0.0
2015-Dec-18 21:33N 49°18' W 123°14'0 0.0
2015-Dec-18 20:33N 49°18' W 123°14'0 0.0
2015-Dec-18 19:33N 49°18' W 123°14'0 0.0
2015-Dec-18 18:33N 49°18' W 123°14'0 0.0
2015-Dec-18 17:33N 49°18' W 123°14'0 0.0
2015-Dec-18 16:33N 49°18' W 123°14'0 0.0
2015-Dec-18 15:33N 49°18' W 123°14'0 0.0
2015-Dec-18 14:33N 49°18' W 123°14'0 0.2
2015-Dec-18 13:33N 49°18' W 123°13'0 0.1
2015-Dec-18 12:33N 49°18' W 123°14'0 0.1
2015-Dec-18 11:33N 49°18' W 123°13'0 0.2
2015-Dec-18 10:33N 49°18' W 123°13'0 0.0
2015-Dec-18 09:33N 49°18' W 123°13'0 0.0
2015-Dec-18 08:33N 49°18' W 123°13'0 0.0
2015-Dec-18 07:33N 49°18' W 123°13'0 0.0
2015-Dec-18 06:33N 49°18' W 123°13'0 0.0
2015-Dec-18 05:33N 49°18' W 123°13'0 0.0
2015-Dec-18 04:33N 49°18' W 123°13'0 0.0
2015-Dec-18 03:33N 49°18' W 123°13'0 0.0
2015-Dec-18 02:33N 49°18' W 123°13'0 0.0
2015-Dec-18 01:33N 49°18' W 123°13'0 0.1
2015-Dec-18 00:33N 49°18' W 123°13'0 0.0
2015-Dec-17 23:33N 49°18' W 123°13'0 0.2
2015-Dec-17 22:33N 49°18' W 123°13'0 0.1
2015-Dec-17 21:33N 49°18' W 123°13'0 0.0
2015-Dec-17 20:33N 49°18' W 123°13'0 0.0
2015-Dec-17 19:33N 49°18' W 123°13'0 0.1
2015-Dec-17 18:33N 49°18' W 123°13'0 0.0
2015-Dec-17 17:33N 49°18' W 123°13'0 0.0
2015-Dec-17 16:33N 49°18' W 123°13'0 0.0
2015-Dec-17 15:33N 49°18' W 123°13'0 0.0
2015-Dec-17 14:33N 49°18' W 123°13'0 0.0
2015-Dec-17 13:33N 49°18' W 123°13'0 0.0
2015-Dec-17 12:33N 49°18' W 123°13'0 0.0
2015-Dec-17 11:33N 49°18' W 123°13'0 0.1
2015-Dec-17 10:33N 49°18' W 123°13'0 0.1
2015-Dec-17 09:33N 49°18' W 123°13'0 0.1
2015-Dec-17 08:33N 49°18' W 123°13'0 0.1
2015-Dec-17 07:33N 49°18' W 123°13'0 0.1
2015-Dec-17 06:33N 49°18' W 123°14'0 0.1
2015-Dec-17 05:33N 49°18' W 123°14'0 0.0
2015-Dec-17 04:33N 49°18' W 123°14'0 0.0
2015-Dec-17 03:33N 49°18' W 123°14'0 0.0
2015-Dec-17 02:33N 49°18' W 123°14'0 0.0
2015-Dec-17 01:33N 49°18' W 123°14'0 0.0
2015-Dec-17 00:33N 49°18' W 123°14'0 0.1
2015-Dec-16 23:33N 49°18' W 123°13'0 0.1
2015-Dec-16 22:33N 49°18' W 123°13'0 0.0
2015-Dec-16 21:33N 49°18' W 123°13'0 0.0
2015-Dec-16 20:33N 49°18' W 123°13'0 0.0
2015-Dec-16 19:33N 49°18' W 123°13'0 0.0
2015-Dec-16 18:30N 49°18' W 123°13'0 0.0
2015-Dec-16 17:33N 49°18' W 123°13'0 0.1
2015-Dec-16 16:33N 49°18' W 123°13'0 0.0
2015-Dec-16 15:33N 49°18' W 123°13'0 0.0
2015-Dec-16 14:33N 49°18' W 123°13'0 0.0
2015-Dec-16 13:33N 49°18' W 123°13'0 0.0
2015-Dec-16 12:33N 49°18' W 123°13'0 0.0
2015-Dec-16 11:33N 49°18' W 123°13'0 0.0
2015-Dec-16 10:33N 49°18' W 123°13'0 0.0
2015-Dec-16 09:33N 49°18' W 123°13'0 0.0
2015-Dec-16 08:33N 49°18' W 123°13'0 0.0
2015-Dec-16 07:33N 49°18' W 123°13'0 0.2
2015-Dec-16 06:33N 49°18' W 123°14'0 0.2
2015-Dec-16 05:33N 49°18' W 123°14'0 0.0
2015-Dec-16 04:33N 49°18' W 123°14'0 0.1
2015-Dec-16 03:33N 49°18' W 123°14'0 0.0
2015-Dec-16 02:33N 49°18' W 123°14'0 0.0
2015-Dec-16 01:33N 49°18' W 123°14'0 0.0
2015-Dec-16 00:31N 49°18' W 123°14'0 0.1
2015-Dec-15 23:31N 49°18' W 123°14'0 0.0
2015-Dec-15 22:31N 49°18' W 123°14'0 0.0
2015-Dec-15 21:31N 49°18' W 123°14'0 0.0
2015-Dec-15 20:31N 49°18' W 123°14'0 0.0
2015-Dec-15 19:31N 49°18' W 123°14'0 0.0
2015-Dec-15 18:31N 49°18' W 123°14'0 0.1
2015-Dec-15 17:31N 49°18' W 123°14'1 0.9
2015-Dec-15 16:33N 49°18' W 123°13'6 5.9
2015-Dec-15 15:33N 49°18' W 123°04'0 0.3
2015-Dec-15 14:32N 49°18' W 123°03'0 0.0
2015-Dec-15 13:32N 49°18' W 123°03'0 0.0
2015-Dec-15 12:32N 49°18' W 123°03'0 0.0
2015-Dec-15 11:32N 49°18' W 123°03'0 0.0
2015-Dec-15 10:32N 49°18' W 123°03'0 0.0
2015-Dec-15 09:32N 49°18' W 123°03'0 0.0
2015-Dec-15 08:32N 49°18' W 123°03'0 0.0
2015-Dec-15 07:32N 49°18' W 123°03'0 0.0
2015-Dec-15 06:32N 49°18' W 123°03'0 0.0
2015-Dec-15 05:32N 49°18' W 123°03'0 0.0
2015-Dec-15 04:32N 49°18' W 123°03'0 0.0
2015-Dec-15 03:32N 49°18' W 123°03'0 0.0
2015-Dec-15 02:32N 49°18' W 123°03'0 0.0
2015-Dec-15 01:32N 49°18' W 123°03'0 0.0
2015-Dec-15 00:32N 49°18' W 123°03'0 0.0
2015-Dec-14 23:32N 49°18' W 123°03'0 0.0
2015-Dec-14 22:32N 49°18' W 123°03'0 0.0
2015-Dec-14 21:32N 49°18' W 123°03'0 0.0
2015-Dec-14 20:32N 49°18' W 123°03'0 0.0
2015-Dec-14 19:32N 49°18' W 123°03'0 0.0
2015-Dec-14 18:32N 49°18' W 123°03'0 0.0
2015-Dec-14 17:32N 49°18' W 123°03'0 0.0
2015-Dec-14 16:32N 49°18' W 123°03'0 0.0
2015-Dec-14 15:32N 49°18' W 123°03'0 0.0
2015-Dec-14 14:32N 49°18' W 123°03'0 0.0
2015-Dec-14 13:32N 49°18' W 123°03'0 0.0
2015-Dec-14 12:32N 49°18' W 123°03'0 0.0
2015-Dec-14 11:32N 49°18' W 123°03'0 0.0
2015-Dec-14 10:32N 49°18' W 123°03'0 0.0
2015-Dec-14 09:32N 49°18' W 123°03'0 0.0
2015-Dec-14 08:32N 49°18' W 123°03'0 0.0
2015-Dec-14 07:32N 49°18' W 123°03'0 0.0
2015-Dec-14 06:32N 49°18' W 123°03'0 0.0
2015-Dec-14 05:32N 49°18' W 123°03'0 0.0
2015-Dec-14 04:32N 49°18' W 123°03'0 0.0
2015-Dec-14 03:32N 49°18' W 123°03'0 0.0
2015-Dec-14 02:32N 49°18' W 123°03'0 0.0
2015-Dec-14 01:29N 49°18' W 123°03'0 0.0
2015-Dec-14 00:32N 49°18' W 123°03'0 0.0
2015-Dec-13 23:26N 49°18' W 123°03'0 0.0
2015-Dec-13 22:32N 49°18' W 123°03'0 0.0
2015-Dec-13 21:32N 49°18' W 123°03'0 0.0
2015-Dec-13 20:32N 49°18' W 123°03'0 0.0
2015-Dec-13 19:32N 49°18' W 123°03'0 0.0
2015-Dec-13 18:32N 49°18' W 123°03'0 0.0
2015-Dec-13 17:32N 49°18' W 123°03'0 0.0
2015-Dec-13 16:32N 49°18' W 123°03'0 0.0
2015-Dec-13 15:32N 49°18' W 123°03'0 0.0
2015-Dec-13 14:32N 49°18' W 123°03'0 0.0
2015-Dec-13 13:32N 49°18' W 123°03'0 0.0
2015-Dec-13 12:32N 49°18' W 123°03'0 0.0
2015-Dec-13 11:32N 49°18' W 123°03'0 0.0
2015-Dec-13 10:32N 49°18' W 123°03'0 0.0
2015-Dec-13 09:34N 49°18' W 123°03'6 5.6
2015-Dec-13 08:34N 49°19' W 123°12'9 9.1
2015-Dec-13 07:33N 49°11' W 123°19'1312.6
2015-Dec-13 06:33N 48°59' W 123°13'1312.6
2015-Dec-13 05:33N 48°50' W 122°60'1110.8
2015-Dec-13 04:31N 48°42' W 123°13'1010.8
2015-Dec-13 03:33N 48°32' W 123°12'1010.3
2015-Dec-13 02:34N 48°22' W 123°17'7 6.9
2015-Dec-13 01:34N 48°18' W 123°25'10 9.9
2015-Dec-13 00:32N 48°13' W 123°38'1312.8
2015-Dec-12 23:31N 48°14' W 123°58'3912.8
2015-Dec-12 20:29N 48°30' W 124°52'  

Dump ship's entire track history